tititudorancea.com
Station Historical Data
Daily Summary for February 14, 2019 Units:  Metric    English   Both
« Previous Day
Next Day »
Daily Weekly Monthly Yearly Custom
  High: Low: Average:
Temperature: -17.8 °C 8.2 °C 17.6 °C
Dew Point: -17.8 °C 4.6 °C 8.9 °C
Humidity: Humidity % 37 % 59 %
Wind Speed: 0 km/h 0 km/h 12.2 km/h
Wind Gust: 0 km/h - -
Wind:- - SSW
Pressure: 0 hPa 1016.5 hPa -
Precipitation: 0 mm    
Historical Graphs
 
 
Ararat weather Find more about Weather in Ararat, AU


 



 


Tabular Data for February 14, 2019
Time Temperature Dew Point Pressure Wind Wind Speed Wind Gust Humidity Rainfall Rate (Hourly)
-17.8 °C -17.8 °C 0 hPa Calm     Humidity % 0 mm
00:04 10.6 °C 5.3 °C 1016.8 hPa SSW 3.2 km/h 1.1 km/h 70 % 0 mm
00:09 10.2 °C 5.2 °C 1016.8 hPa Calm     71 % 0 mm
00:14 9.9 °C 5.1 °C 1016.8 hPa SSW 3.7 km/h 2.3 km/h 72 % 0 mm
00:19 9.7 °C 4.9 °C 1016.8 hPa SSW 1.9 km/h   72 % 0 mm
00:24 9.6 °C 4.9 °C 1016.5 hPa Calm     73 % 0 mm
00:29 9.3 °C 4.7 °C 1016.5 hPa Calm     73 % 0 mm
00:34 9.2 °C 4.8 °C 1016.5 hPa Calm     74 % 0 mm
00:39 9 °C 4.6 °C 1016.5 hPa SSW 1.9 km/h   74 % 0 mm
00:44 8.8 °C 4.7 °C 1016.5 hPa Calm     75 % 0 mm
00:49 8.7 °C 4.8 °C 1016.5 hPa SSW 1.9 km/h   77 % 0 mm
00:54 8.5 °C 4.9 °C 1016.5 hPa Calm     78 % 0 mm
00:59 8.4 °C 4.9 °C 1016.5 hPa Calm     79 % 0 mm
01:04 8.3 °C 5.1 °C 1016.5 hPa Calm     80 % 0 mm
01:09 8.2 °C 5 °C 1016.8 hPa Calm     80 % 0 mm
01:13 8.2 °C 4.9 °C 1016.8 hPa Calm     80 % 0 mm
07:39 11.9 °C 7.2 °C 1018.5 hPa SW 9.7 km/h 7.4 km/h 73 % 0 mm
07:44 11.9 °C 7.1 °C 1018.5 hPa SW 9.3 km/h 6.1 km/h 72 % 0 mm
07:49 12 °C 7.3 °C 1018.5 hPa SW 11.1 km/h 4.8 km/h 73 % 0 mm
07:54 12.1 °C 7.2 °C 1018.5 hPa SW 9.3 km/h 4.8 km/h 72 % 0 mm
07:59 12.2 °C 7.4 °C 1018.5 hPa SW 11.1 km/h 9.2 km/h 73 % 0 mm
08:04 12.2 °C 7.3 °C 1018.5 hPa SW 11.1 km/h 6.4 km/h 72 % 0 mm
08:09 12.2 °C 7.3 °C 1018.8 hPa SW 11.1 km/h 8.4 km/h 72 % 0 mm
08:14 12.3 °C 7.4 °C 1018.8 hPa SW 11.1 km/h 9 km/h 72 % 0 mm
08:19 12.3 °C 7.4 °C 1018.8 hPa WSW 20.9 km/h 11.7 km/h 72 % 0 mm
08:24 12.3 °C 7.4 °C 1018.8 hPa West 14.8 km/h 8.2 km/h 72 % 0 mm
08:29 12.4 °C 7.7 °C 1018.8 hPa West 6.4 km/h 4.8 km/h 73 % 0 mm
08:34 12.6 °C 7.7 °C 1019.2 hPa West 9.3 km/h 5.8 km/h 72 % 0 mm
08:39 12.6 °C 7.7 °C 1019.2 hPa WSW 7.4 km/h 5.8 km/h 72 % 0 mm
08:44 12.6 °C 7.7 °C 1019.2 hPa West 5.6 km/h 5.6 km/h 72 % 0 mm
08:49 12.6 °C 7.7 °C 1019.2 hPa West 7.4 km/h 5 km/h 72 % 0 mm
08:54 12.7 °C 7.7 °C 1019.2 hPa West 6.4 km/h 6.9 km/h 72 % 0 mm
08:59 12.7 °C 7.8 °C 1019.5 hPa West 9.3 km/h 7.4 km/h 72 % 0 mm
09:04 12.9 °C 7.9 °C 1019.5 hPa West 7.4 km/h 7.1 km/h 72 % 0 mm
09:09 12.9 °C 8 °C 1019.5 hPa West 7.4 km/h 7.4 km/h 72 % 0 mm
09:14 13 °C 8.1 °C 1019.5 hPa West 9.3 km/h 5.6 km/h 72 % 0 mm
09:19 13.1 °C 7.9 °C 1019.5 hPa West 11.1 km/h 4.7 km/h 71 % 0 mm
09:24 13.3 °C 8.1 °C 1019.5 hPa West 9.3 km/h 7.4 km/h 71 % 0 mm
09:29 13.4 °C 8 °C 1019.5 hPa West 11.1 km/h 5.1 km/h 70 % 0 mm
09:34 13.6 °C 8.2 °C 1019.5 hPa West 18.5 km/h 11.6 km/h 70 % 0 mm
09:39 13.7 °C 8.1 °C 1019.5 hPa West 7.4 km/h 7.4 km/h 69 % 0 mm
09:44 13.8 °C 8.2 °C 1019.5 hPa West 8 km/h 5.1 km/h 69 % 0 mm
09:49 14 °C 8.4 °C 1019.5 hPa West 9.7 km/h 6.6 km/h 69 % 0 mm
09:54 14.2 °C 8.4 °C 1019.5 hPa West 6.4 km/h 6.1 km/h 68 % 0 mm
09:59 14.4 °C 8.4 °C 1019.5 hPa West 7.4 km/h 2.9 km/h 67 % 0 mm
10:04 14.4 °C 8.3 °C 1019.2 hPa WSW 7.4 km/h 4 km/h 67 % 0 mm
10:09 14.5 °C 8.2 °C 1019.5 hPa WSW 18.5 km/h 7.6 km/h 66 % 0 mm
10:14 14.5 °C 8.2 °C 1019.2 hPa WSW 5.6 km/h 0.6 km/h 66 % 0 mm
10:19 14.9 °C 8.4 °C 1019.2 hPa WSW 14.8 km/h 6.8 km/h 65 % 0 mm
10:24 14.8 °C 8.3 °C 1019.2 hPa WSW 11.1 km/h 7.6 km/h 65 % 0 mm
10:29 14.9 °C 8.4 °C 1019.2 hPa WSW 9.7 km/h 7.7 km/h 65 % 0 mm
10:34 14.9 °C 8.4 °C 1019.5 hPa WSW 9.3 km/h 9.8 km/h 65 % 0 mm
10:39 15.3 °C 8.7 °C 1019.5 hPa SSW 11.3 km/h 5.3 km/h 65 % 0 mm
10:44 15.6 °C 8.6 °C 1019.5 hPa SSW 18.5 km/h 11.6 km/h 63 % 0 mm
10:49 15.6 °C 8.8 °C 1019.5 hPa SW 12.9 km/h 9.8 km/h 64 % 0 mm
10:54 15.6 °C 8.3 °C 1019.5 hPa SW 9.7 km/h 10.3 km/h 62 % 0 mm
10:59 15.6 °C 8.6 °C 1019.5 hPa SW 11.3 km/h 6.4 km/h 63 % 0 mm
11:04 16.1 °C 8.6 °C 1019.5 hPa SW 13 km/h 8.9 km/h 61 % 0 mm
11:09 16.2 °C 8.6 °C 1019.5 hPa West 18.5 km/h 17.7 km/h 61 % 0 mm
11:14 16.1 °C 8.6 °C 1019.5 hPa West 13 km/h 11.1 km/h 61 % 0 mm
11:19 16.5 °C 8.7 °C 1019.5 hPa West 5.6 km/h 1 km/h 60 % 0 mm
11:24 16.6 °C 8.6 °C 1019.5 hPa SW 18.5 km/h 8 km/h 59 % 0 mm
11:29 16.7 °C 8.9 °C 1019.5 hPa West 18.5 km/h 15 km/h 60 % 0 mm
11:34 17 °C 8.7 °C 1019.5 hPa SW 16.7 km/h 15.3 km/h 58 % 0 mm
11:39 16.9 °C 8.9 °C 1019.5 hPa SW 16.7 km/h 10.3 km/h 59 % 0 mm
11:44 16.9 °C 8.3 °C 1019.5 hPa SW 18.5 km/h 13 km/h 57 % 0 mm
11:49 17 °C 8.9 °C 1019.5 hPa SW 11.1 km/h 6.6 km/h 59 % 0 mm
11:54 17.3 °C 9 °C 1019.5 hPa SW 11.1 km/h 6.3 km/h 58 % 0 mm
11:59 17.4 °C 8.8 °C 1019.5 hPa South 14.8 km/h 9.5 km/h 57 % 0 mm
12:04 17.4 °C 8.8 °C 1019.5 hPa SSW 20.4 km/h 16.6 km/h 57 % 0 mm
12:09 17.3 °C 9 °C 1019.5 hPa SW 13 km/h 7.4 km/h 58 % 0 mm
12:14 17.3 °C 8.7 °C 1019.5 hPa SSW 11.1 km/h 5.5 km/h 57 % 0 mm
12:19 17.8 °C 9.2 °C 1019.5 hPa SSW 13 km/h 11.4 km/h 57 % 0 mm
12:24 18.1 °C 9.1 °C 1019.5 hPa SW 11.3 km/h 10.8 km/h 56 % 0 mm
12:29 17.7 °C 8.8 °C 1019.5 hPa SW 14.8 km/h 6.9 km/h 56 % 0 mm
12:34 17.8 °C 8.6 °C 1019.5 hPa WSW 13 km/h 7.1 km/h 55 % 0 mm
12:39 18.1 °C 8.9 °C 1019.2 hPa WSW 7.4 km/h 7.1 km/h 55 % 0 mm
12:44 18.7 °C 9.2 °C 1019.2 hPa SSW 13 km/h 7.7 km/h 54 % 0 mm
12:49 18.6 °C 9.1 °C 1019.5 hPa SSW 14.8 km/h 9.7 km/h 54 % 0 mm
12:54 18.4 °C 8.7 °C 1019.2 hPa SSW 5.6 km/h 1 km/h 53 % 0 mm
12:59 18.8 °C 9.3 °C 1019.2 hPa SSW 13 km/h 8.7 km/h 54 % 0 mm
13:04 19 °C 8.9 °C 1019.2 hPa SSW 24.1 km/h 17.5 km/h 52 % 0 mm
13:09 19 °C 8.9 °C 1019.2 hPa SSW 11.1 km/h 4.7 km/h 52 % 0 mm
13:14 19.2 °C 9.1 °C 1019.2 hPa SSW 18.5 km/h 9.5 km/h 52 % 0 mm
13:19 19.3 °C 8.9 °C 1018.8 hPa SSW 11.1 km/h 7.4 km/h 51 % 0 mm
13:24 19.6 °C 8.9 °C 1018.8 hPa WSW 17.7 km/h 12.9 km/h 50 % 0 mm
13:29 19.6 °C 8.6 °C 1018.8 hPa SW 16.7 km/h 8.9 km/h 49 % 0 mm
13:34 19.6 °C 8.6 °C 1018.8 hPa SW 11.3 km/h 4.2 km/h 49 % 0 mm
13:39 19.9 °C 8.9 °C 1018.8 hPa SW 9.3 km/h 5.8 km/h 49 % 0 mm
13:44 20.1 °C 9.3 °C 1018.8 hPa SSW 14.5 km/h 8.5 km/h 50 % 0 mm
13:49 19.8 °C 9.1 °C 1018.8 hPa SSW 13 km/h 4.7 km/h 50 % 0 mm
13:54 20.1 °C 9.1 °C 1018.8 hPa SSW 5.6 km/h 5.1 km/h 49 % 0 mm
13:59 20.6 °C 9.2 °C 1018.8 hPa SSE 20.4 km/h 9.8 km/h 48 % 0 mm
14:04 20.7 °C 8.6 °C 1018.8 hPa WSW 11.3 km/h 8.9 km/h 46 % 0 mm
14:09 20.6 °C 8.2 °C 1018.8 hPa WNW 7.4 km/h 3.5 km/h 45 % 0 mm
14:14 20.9 °C 8.8 °C 1018.8 hPa West 9.3 km/h 3.2 km/h 46 % 0 mm
14:19 21.2 °C 8.4 °C 1018.8 hPa SSW 16.7 km/h 8.9 km/h 44 % 0 mm
14:24 21.1 °C 8.7 °C 1018.8 hPa SW 14.8 km/h 9.3 km/h 45 % 0 mm
14:29 21.1 °C 8.4 °C 1018.8 hPa SW 5.6 km/h 3.4 km/h 44 % 0 mm
14:34 21.2 °C 8.8 °C 1018.5 hPa SW 11.3 km/h 1.9 km/h 45 % 0 mm
14:39 21.9 °C 9.4 °C 1018.8 hPa SSW 8 km/h 9 km/h 45 % 0 mm
14:44 22.2 °C 9 °C 1018.8 hPa SSW 14.5 km/h 9.3 km/h 43 % 0 mm
14:49 21.9 °C 8.7 °C 1018.8 hPa SSW 11.1 km/h 7.7 km/h 43 % 0 mm
14:54 22 °C 8.8 °C 1018.8 hPa SSE 14.5 km/h 11.1 km/h 43 % 0 mm
14:59 22.3 °C 8.4 °C 1018.5 hPa SSE 11.1 km/h 4.5 km/h 41 % 0 mm
15:04 22.1 °C 8.2 °C 1018.5 hPa South 18.5 km/h 15.9 km/h 41 % 0 mm
15:09 21.8 °C 8.3 °C 1018.5 hPa South 9.3 km/h 2.1 km/h 42 % 0 mm
15:14 22.1 °C 8.2 °C 1018.5 hPa South 11.1 km/h 4.7 km/h 41 % 0 mm
15:19 22.4 °C 8.9 °C 1018.5 hPa SSE 18.5 km/h 7.9 km/h 42 % 0 mm
15:24 22.4 °C 8.9 °C 1018.5 hPa South 18.5 km/h 11.3 km/h 42 % 0 mm
15:29 22.4 °C 8.5 °C 1018.5 hPa SSW 14.8 km/h 10.6 km/h 41 % 0 mm
15:34 22.3 °C 8.4 °C 1018.5 hPa SSW 3.7 km/h 1.8 km/h 41 % 0 mm
15:39 22.8 °C 8.8 °C 1018.5 hPa SSW 5.6 km/h 2.3 km/h 41 % 0 mm
15:44 23.3 °C 8.9 °C 1018.5 hPa SE 18.5 km/h 9.3 km/h 40 % 0 mm
15:49 23.3 °C 8.9 °C 1018.5 hPa SE 9.3 km/h 3.1 km/h 40 % 0 mm
15:54 23.4 °C 7.9 °C 1018.5 hPa South 18.5 km/h 11.9 km/h 37 % 0 mm
15:59 22.8 °C 8.4 °C 1018.5 hPa South 20.4 km/h 8.7 km/h 40 % 0 mm
16:04 22.9 °C 8.6 °C 1018.5 hPa West 11.1 km/h 9.2 km/h 40 % 0 mm
16:09 22.9 °C 8.6 °C 1018.5 hPa South 18.5 km/h 12.4 km/h 40 % 0 mm
16:14 22.7 °C 9.2 °C 1018.2 hPa South 7.4 km/h 2.7 km/h 42 % 0 mm
16:19 22.9 °C 8.9 °C 1018.2 hPa South 14.8 km/h 4.5 km/h 41 % 0 mm
16:24 23.4 °C 9.7 °C 1018.5 hPa SSW 17.7 km/h 8.7 km/h 42 % 0 mm
16:29 23.4 °C 9.4 °C 1018.2 hPa South 14.8 km/h 13.2 km/h 41 % 0 mm
16:34 22.9 °C 9 °C 1018.2 hPa SSW 18.5 km/h 12.7 km/h 41 % 0 mm
16:39 22.7 °C 9.8 °C 1018.2 hPa SSE 13 km/h 7.4 km/h 44 % 0 mm
16:44 22.6 °C 9.1 °C 1018.2 hPa South 9.3 km/h 2.3 km/h 42 % 0 mm
16:49 22.9 °C 9.7 °C 1018.2 hPa SSW 17.7 km/h 12.1 km/h 43 % 0 mm
16:54 22.9 °C 9.3 °C 1018.2 hPa South 11.1 km/h 9.3 km/h 42 % 0 mm
16:59 23 °C 9.1 °C 1018.2 hPa South 11.1 km/h 9.8 km/h 41 % 0 mm
17:04 23 °C 9.4 °C 1018.2 hPa SSW 9.3 km/h 13.4 km/h 42 % 0 mm
17:09 22.8 °C 8.9 °C 1018.2 hPa SSW 13 km/h 13.8 km/h 41 % 0 mm
17:14 22.8 °C 9.2 °C 1018.2 hPa SSW 18.5 km/h 9.2 km/h 42 % 0 mm
17:19 22.8 °C 9.2 °C 1018.2 hPa SSW 13 km/h 6.3 km/h 42 % 0 mm
17:24 23.1 °C 9.1 °C 1018.2 hPa SSW 7.4 km/h 3.7 km/h 41 % 0 mm
17:29 23.3 °C 9.3 °C 1018.2 hPa South 14.8 km/h 8.9 km/h 41 % 0 mm
17:34 23.2 °C 9.2 °C 1018.2 hPa SE 13 km/h 6.1 km/h 41 % 0 mm
17:39 23.2 °C 9.2 °C 1018.2 hPa SE 17.7 km/h 12.4 km/h 41 % 0 mm
17:44 23.3 °C 9.3 °C 1018.2 hPa SSE 18.5 km/h 7.9 km/h 41 % 0 mm
17:49 23.2 °C 8.9 °C 1018.2 hPa SE 11.1 km/h 10.1 km/h 40 % 0 mm
17:54 23.1 °C 9.1 °C 1018.2 hPa South 22.5 km/h 15.3 km/h 41 % 0 mm
17:59 23 °C 9.4 °C 1018.2 hPa South 17.7 km/h 9.5 km/h 42 % 0 mm
18:04 23.1 °C 9.1 °C 1018.2 hPa SSE 18.5 km/h 9.2 km/h 41 % 0 mm
18:09 23.1 °C 9.1 °C 1018.2 hPa SSE 16.1 km/h 12.6 km/h 41 % 0 mm
18:14 23.1 °C 9.8 °C 1018.2 hPa South 11.1 km/h 6.1 km/h 43 % 0 mm
18:19 23.1 °C 9.1 °C 1018.5 hPa South 16.7 km/h 12.7 km/h 41 % 0 mm
18:24 22.8 °C 9.2 °C 1018.5 hPa SSW 18.5 km/h 10 km/h 42 % 0 mm
18:29 22.7 °C 9.2 °C 1018.5 hPa SSW 14.5 km/h 7.6 km/h 42 % 0 mm
18:34 22.7 °C 9.2 °C 1018.5 hPa South 11.3 km/h 10.1 km/h 42 % 0 mm
18:39 22.8 °C 9.2 °C 1018.5 hPa SSE 13 km/h 9.8 km/h 42 % 0 mm
18:44 22.8 °C 8.8 °C 1018.5 hPa SSW 14.8 km/h 11.9 km/h 41 % 0 mm
18:49 22.7 °C 9.1 °C 1018.5 hPa SSW 11.3 km/h 8.5 km/h 42 % 0 mm
18:54 22.6 °C 8.7 °C 1018.5 hPa SSW 18.5 km/h 13.5 km/h 41 % 0 mm
18:59 22.6 °C 9 °C 1018.5 hPa South 18.5 km/h 4.7 km/h 42 % 0 mm
19:04 22.5 °C 8.6 °C 1018.5 hPa South 16.7 km/h 11.9 km/h 41 % 0 mm
19:09 22.4 °C 8.5 °C 1018.5 hPa South 8 km/h 6.6 km/h 41 % 0 mm
19:14 22.3 °C 8.7 °C 1018.8 hPa South 14.8 km/h 8.7 km/h 42 % 0 mm
19:19 22.1 °C 8.6 °C 1018.8 hPa SSW 9.3 km/h 6.3 km/h 42 % 0 mm
19:24 22.1 °C 8.9 °C 1018.8 hPa SSW 9.7 km/h 8.9 km/h 43 % 0 mm
19:29 22.1 °C 8.6 °C 1018.8 hPa SSW 11.1 km/h 8.9 km/h 42 % 0 mm
19:34 22.1 °C 8.9 °C 1018.8 hPa SSW 5.6 km/h 3.4 km/h 43 % 0 mm
19:39 21.9 °C 8.8 °C 1018.8 hPa South 14.8 km/h 6.4 km/h 43 % 0 mm
19:44 21.8 °C 8.7 °C 1018.8 hPa South 5.6 km/h 6.6 km/h 43 % 0 mm
19:49 21.7 °C 8.6 °C 1018.8 hPa South 7.4 km/h 4.5 km/h 43 % 0 mm
19:54 21.6 °C 8.8 °C 1019.2 hPa South 5.6 km/h 3.7 km/h 44 % 0 mm
19:59 21.5 °C 8.7 °C 1019.2 hPa South 11.1 km/h 7.1 km/h 44 % 0 mm
20:04 21.3 °C 8.6 °C 1019.2 hPa South 9.3 km/h 3.7 km/h 44 % 0 mm
20:09 21.2 °C 8.8 °C 1019.2 hPa South 3.7 km/h 3.4 km/h 45 % 0 mm
20:14 21 °C 8.6 °C 1019.2 hPa South 9.3 km/h 5.1 km/h 45 % 0 mm
20:19 20.8 °C 8.7 °C 1019.2 hPa South 5.6 km/h 3.1 km/h 46 % 0 mm
20:24 20.6 °C 8.6 °C 1019.2 hPa South 5.6 km/h 4.2 km/h 46 % 0 mm
20:29 20.3 °C 9.8 °C 1019.5 hPa SSE 25.9 km/h 8.9 km/h 51 % 0 mm
20:34 20 °C 10.9 °C 1019.5 hPa SSE 11.3 km/h 8.7 km/h 56 % 0 mm
20:39 19.7 °C 11.2 °C 1019.5 hPa SSE 16.7 km/h 9.7 km/h 58 % 0 mm
20:44 19.3 °C 11.4 °C 1019.5 hPa South 25.9 km/h 14.6 km/h 60 % 0 mm
20:49 19 °C 11.8 °C 1019.9 hPa South 22.2 km/h 13.2 km/h 63 % 0 mm
20:54 18.6 °C 11.9 °C 1019.9 hPa SSE 18.5 km/h 13.4 km/h 65 % 0 mm
20:59 18.3 °C 11.8 °C 1019.9 hPa SSE 16.7 km/h 8.7 km/h 66 % 0 mm
21:04 18 °C 11.8 °C 1020.2 hPa SSE 14.8 km/h 10 km/h 67 % 0 mm
21:09 17.8 °C 11.8 °C 1020.2 hPa South 18.5 km/h 15 km/h 68 % 0 mm
21:14 17.6 °C 11.8 °C 1020.2 hPa South 16.7 km/h 8.9 km/h 69 % 0 mm
21:19 17.4 °C 11.8 °C 1020.5 hPa South 16.7 km/h 10.9 km/h 70 % 0 mm
21:24 17.2 °C 11.9 °C 1020.5 hPa South 14.8 km/h 11.1 km/h 71 % 0 mm
21:29 17 °C 11.9 °C 1020.5 hPa South 11.3 km/h 10.1 km/h 72 % 0 mm
21:34 16.8 °C 11.9 °C 1020.5 hPa SE 16.7 km/h 12.6 km/h 73 % 0 mm
21:39 16.7 °C 11.8 °C 1020.9 hPa SE 11.1 km/h 8.5 km/h 73 % 0 mm
21:44 16.6 °C 11.9 °C 1020.9 hPa SSE 16.7 km/h 10.5 km/h 74 % 0 mm
21:49 16.3 °C 11.9 °C 1020.9 hPa SSE 7.4 km/h 8 km/h 75 % 0 mm
21:54 16.2 °C 11.9 °C 1020.9 hPa SSE 13 km/h 8.9 km/h 76 % 0 mm
21:59 16 °C 11.9 °C 1021.2 hPa SSE 22.2 km/h 12.6 km/h 77 % 0 mm
22:04 15.8 °C 11.9 °C 1021.2 hPa SSE 22.2 km/h 17.4 km/h 78 % 0 mm
22:09 15.6 °C 11.8 °C 1021.2 hPa SSE 18.5 km/h 12.2 km/h 78 % 0 mm
22:14 15.5 °C 11.9 °C 1021.2 hPa SSE 18.5 km/h 12.7 km/h 79 % 0 mm
22:19 15.4 °C 11.9 °C 1021.2 hPa SSE 14.8 km/h 10.8 km/h 80 % 0 mm
22:24 15.2 °C 11.8 °C 1021.2 hPa SSE 16.7 km/h 8.7 km/h 80 % 0 mm
22:29 15.2 °C 11.7 °C 1021.6 hPa SSE 13 km/h 7.9 km/h 80 % 0 mm
22:34 15.1 °C 11.8 °C 1021.6 hPa South 22.2 km/h 8 km/h 81 % 0 mm
22:39 15 °C 11.8 °C 1021.6 hPa South 14.8 km/h 7.4 km/h 81 % 0 mm
22:44 14.9 °C 11.8 °C 1021.2 hPa South 14.8 km/h 5.3 km/h 82 % 0 mm
22:49 14.8 °C 11.7 °C 1021.2 hPa SSE 14.8 km/h 10.6 km/h 82 % 0 mm
22:54 14.7 °C 11.8 °C 1021.6 hPa South 18.5 km/h 10.9 km/h 83 % 0 mm
22:59 14.6 °C 11.8 °C 1021.6 hPa South 16.7 km/h 8.9 km/h 83 % 0 mm
23:04 14.6 °C 11.8 °C 1021.6 hPa South 16.7 km/h 8.2 km/h 83 % 0 mm
23:09 14.6 °C 11.9 °C 1021.6 hPa South 11.1 km/h 8.5 km/h 84 % 0 mm
23:14 14.5 °C 11.8 °C 1021.6 hPa South 13 km/h 10 km/h 84 % 0 mm
23:19 14.4 °C 11.7 °C 1021.9 hPa South 12.9 km/h 8 km/h 84 % 0 mm
23:24 14.3 °C 11.7 °C 1021.6 hPa South 13 km/h 8.4 km/h 84 % 0 mm
23:29 14.3 °C 11.8 °C 1021.6 hPa SSE 14.8 km/h 9 km/h 85 % 0 mm
23:34 14.2 °C 11.7 °C 1021.6 hPa South 11.1 km/h 9.3 km/h 85 % 0 mm
23:39 14.1 °C 11.6 °C 1021.6 hPa South 9.3 km/h 5.5 km/h 85 % 0 mm
23:44 14.1 °C 11.6 °C 1021.6 hPa South 14.8 km/h 6.9 km/h 85 % 0 mm
23:49 14 °C 11.7 °C 1021.6 hPa South 11.1 km/h 4.3 km/h 86 % 0 mm
23:54 13.9 °C 11.6 °C 1021.6 hPa South 11.1 km/h 7.4 km/h 86 % 0 mm
23:59 13.8 °C 11.5 °C 1021.6 hPa South 9.3 km/h 5.3 km/h 86 % 0 mm
Ararat Weather
Compliments of Weather Underground - 2 mb
Click here to send mail.


ABOUT

Live weather data from Ararat, Victoria, Australia, 3377
Data uploaded from Cumulus every 5 minutes to Weather Underground.
This site then downloads the raw data for formatting and display.
Metric and imperial data can be displayed. Graphs and historical data available.
Includes Sun and Moon times and rain image live from BOM.

Check out Ararat Weather on Facebook, Twitter and Google +

Help support ongoing costs by checking out the ads





Follow @AraratWeather